createdAt,value
2022-12-06T00:01:45.036Z,4.63
2022-12-06T00:04:11.208Z,4.82
2022-12-06T00:06:39.717Z,4.47
2022-12-06T00:09:11.247Z,4.03
2022-12-06T00:14:08.523Z,4.93
2022-12-06T00:16:40.827Z,4.20
2022-12-06T00:19:10.272Z,4.53
2022-12-06T00:21:40.724Z,4.40
2022-12-06T00:24:06.943Z,4.80
2022-12-06T00:26:33.087Z,4.65
2022-12-06T00:28:59.365Z,4.97
2022-12-06T00:31:25.688Z,4.70
2022-12-06T00:33:51.945Z,4.53
2022-12-06T00:36:18.151Z,4.80
2022-12-06T00:38:44.310Z,4.78
2022-12-06T00:41:10.476Z,4.30
2022-12-06T00:43:36.679Z,4.47
2022-12-06T00:46:03.025Z,4.68
2022-12-06T00:48:29.255Z,4.18
2022-12-06T00:50:55.426Z,5.28
2022-12-06T00:53:21.602Z,4.07
2022-12-06T00:55:47.727Z,4.38
2022-12-06T00:58:14.003Z,4.82
2022-12-06T01:00:40.334Z,4.35
2022-12-06T01:03:06.651Z,3.92
2022-12-06T01:05:32.974Z,4.78
2022-12-06T01:07:59.243Z,4.40
2022-12-06T01:10:25.469Z,4.28
2022-12-06T01:12:51.599Z,4.85
2022-12-06T01:15:17.759Z,4.85
2022-12-06T01:17:44.176Z,4.78
2022-12-06T01:20:10.376Z,4.05
2022-12-06T01:22:36.598Z,5.05
2022-12-06T01:25:02.742Z,5.18
2022-12-06T01:27:28.940Z,5.18
2022-12-06T01:29:55.080Z,4.90
2022-12-06T01:32:21.220Z,5.18
2022-12-06T01:34:47.394Z,5.22
2022-12-06T01:37:13.579Z,4.65
2022-12-06T01:39:39.795Z,4.25
2022-12-06T01:42:06.207Z,4.95
2022-12-06T01:44:32.638Z,5.05
2022-12-06T01:46:58.788Z,4.68
2022-12-06T01:49:25.125Z,4.63
2022-12-06T01:51:51.282Z,4.57
2022-12-06T01:54:17.482Z,5.32
2022-12-06T01:56:43.722Z,4.93
2022-12-06T01:59:09.943Z,4.45
2022-12-06T02:01:36.243Z,4.57
2022-12-06T02:04:02.510Z,4.90
2022-12-06T02:06:28.665Z,4.82
2022-12-06T02:08:54.912Z,4.13
2022-12-06T02:11:21.141Z,4.40
2022-12-06T02:13:47.371Z,4.45
2022-12-06T02:16:13.688Z,4.75
2022-12-06T02:18:40.000Z,4.50
2022-12-06T02:21:06.212Z,4.80
2022-12-06T02:23:32.432Z,4.30
2022-12-06T02:25:58.643Z,4.47
2022-12-06T02:28:24.802Z,4.55
2022-12-06T02:30:51.045Z,4.60
2022-12-06T02:33:17.295Z,4.28
2022-12-06T02:35:43.480Z,4.38
2022-12-06T02:38:13.004Z,4.90
2022-12-06T02:40:39.586Z,5.32
2022-12-06T02:43:05.771Z,4.88
2022-12-06T02:45:31.976Z,4.82
2022-12-06T02:47:58.169Z,4.63
2022-12-06T02:50:24.364Z,5.00
2022-12-06T02:52:50.544Z,4.60
2022-12-06T02:55:16.747Z,4.78
2022-12-06T02:57:42.926Z,4.60
2022-12-06T03:00:09.155Z,4.53
2022-12-06T03:02:35.437Z,4.05
2022-12-06T03:05:01.781Z,4.80
2022-12-06T03:07:27.999Z,4.82
2022-12-06T03:09:54.203Z,4.95
2022-12-06T03:12:20.411Z,4.65
2022-12-06T03:14:46.651Z,4.55
2022-12-06T03:17:12.842Z,4.72
2022-12-06T03:19:39.074Z,4.45
2022-12-06T03:22:05.289Z,4.85
2022-12-06T03:24:31.480Z,4.35
2022-12-06T03:26:57.701Z,4.75
2022-12-06T03:29:23.898Z,4.40
2022-12-06T03:31:50.112Z,4.93
2022-12-06T03:34:16.302Z,5.03
2022-12-06T03:36:42.462Z,4.50
2022-12-06T03:39:08.706Z,4.47
2022-12-06T03:41:34.883Z,4.82
2022-12-06T03:44:01.057Z,5.00
2022-12-06T03:46:28.157Z,4.50
2022-12-06T03:48:54.566Z,4.72
2022-12-06T03:51:20.761Z,5.00
2022-12-06T03:53:46.999Z,4.55
2022-12-06T03:56:13.196Z,5.32
2022-12-06T03:58:39.741Z,4.88
2022-12-06T04:01:05.969Z,5.05
2022-12-06T04:03:32.221Z,4.97
2022-12-06T04:05:58.456Z,4.30
2022-12-06T04:08:24.649Z,4.68
2022-12-06T04:10:50.840Z,4.78
2022-12-06T04:13:19.733Z,4.43
2022-12-06T04:15:46.373Z,4.72
2022-12-06T04:18:12.753Z,4.32
2022-12-06T04:20:38.946Z,4.85
2022-12-06T04:23:05.140Z,5.35
2022-12-06T04:25:31.319Z,4.55
2022-12-06T04:27:57.518Z,5.85
2022-12-06T04:30:23.703Z,4.88
2022-12-06T04:32:49.830Z,5.03
2022-12-06T04:35:16.005Z,5.22
2022-12-06T04:37:42.200Z,4.53
2022-12-06T04:40:08.388Z,5.05
2022-12-06T04:42:34.557Z,5.07
2022-12-06T04:45:00.722Z,4.53
2022-12-06T04:50:07.063Z,4.50
2022-12-06T04:52:35.899Z,5.05
2022-12-06T04:55:02.496Z,5.55
2022-12-06T04:57:31.518Z,4.88
2022-12-06T04:59:58.030Z,5.13
2022-12-06T05:02:24.448Z,5.25
2022-12-06T05:04:50.633Z,5.05
2022-12-06T05:07:16.815Z,4.85
2022-12-06T05:09:43.048Z,4.95
2022-12-06T05:12:09.204Z,4.20
2022-12-06T05:14:35.490Z,4.72
2022-12-06T05:17:01.662Z,4.70
2022-12-06T05:19:30.728Z,4.22
2022-12-06T05:21:57.160Z,4.88
2022-12-06T05:24:23.315Z,4.75
2022-12-06T05:26:49.472Z,4.88
2022-12-06T05:29:15.651Z,4.50
2022-12-06T05:31:41.872Z,4.57
2022-12-06T05:34:08.046Z,5.05
2022-12-06T05:36:34.183Z,4.70
2022-12-06T05:39:00.312Z,5.55
2022-12-06T05:41:26.489Z,4.07
2022-12-06T05:43:52.694Z,4.65
2022-12-06T05:46:18.972Z,4.43
2022-12-06T05:48:45.181Z,3.95
2022-12-06T05:51:11.318Z,4.68
2022-12-06T05:53:37.481Z,4.57
2022-12-06T05:56:03.612Z,4.07
2022-12-06T05:58:29.752Z,4.00
2022-12-06T06:00:55.898Z,4.47
2022-12-06T06:03:22.120Z,4.20
2022-12-06T06:05:48.349Z,3.90
2022-12-06T06:08:14.642Z,4.50
2022-12-06T06:10:40.825Z,3.50
2022-12-06T06:13:55.794Z,3.50
2022-12-06T06:15:55.732Z,4.35
2022-12-06T06:18:21.887Z,3.97
2022-12-06T06:20:48.128Z,5.10
2022-12-06T06:23:14.251Z,4.63
2022-12-06T06:25:40.403Z,4.40
2022-12-06T06:28:06.572Z,3.75
2022-12-06T06:30:32.714Z,4.55
2022-12-06T06:32:58.966Z,3.70
2022-12-06T06:35:25.093Z,3.80
2022-12-06T06:37:51.211Z,3.58
2022-12-06T06:40:17.387Z,3.97
2022-12-06T06:42:43.551Z,3.55
2022-12-06T06:45:09.712Z,3.45
2022-12-06T06:47:35.904Z,3.85
2022-12-06T06:53:00.389Z,3.47
2022-12-06T06:55:26.504Z,3.60
2022-12-06T06:57:52.645Z,3.72
2022-12-06T07:00:18.836Z,3.78
2022-12-06T07:02:47.918Z,3.72
2022-12-06T07:05:14.293Z,4.28
2022-12-06T07:07:40.900Z,3.50
2022-12-06T07:10:07.061Z,3.75
2022-12-06T07:12:33.215Z,3.63
2022-12-06T07:14:59.619Z,4.25
2022-12-06T07:17:25.872Z,4.10
2022-12-06T07:19:52.100Z,3.85
2022-12-06T07:22:18.293Z,4.10
2022-12-06T07:24:49.174Z,4.10
2022-12-06T07:27:18.428Z,4.50
2022-12-06T07:29:44.608Z,4.18
2022-12-06T07:32:12.853Z,3.78
2022-12-06T07:34:39.050Z,3.85
2022-12-06T07:37:05.377Z,3.90
2022-12-06T07:39:31.545Z,4.45
2022-12-06T07:41:57.729Z,4.03
2022-12-06T07:44:23.961Z,4.28
2022-12-06T07:46:50.219Z,4.18
2022-12-06T07:49:16.396Z,3.55
2022-12-06T07:51:42.534Z,4.10
2022-12-06T07:54:08.757Z,4.10
2022-12-06T07:56:34.931Z,3.97
2022-12-06T07:59:01.241Z,4.15
2022-12-06T08:01:27.616Z,4.03
2022-12-06T08:03:53.801Z,4.47
2022-12-06T08:06:19.987Z,4.25
2022-12-06T08:08:46.164Z,3.70
2022-12-06T08:11:12.487Z,3.40
2022-12-06T08:13:38.672Z,3.90
2022-12-06T08:16:05.048Z,3.25
2022-12-06T08:18:31.294Z,3.55
2022-12-06T08:20:57.491Z,3.50
2022-12-06T08:23:26.821Z,3.60
2022-12-06T08:25:55.559Z,4.03
2022-12-06T08:28:21.887Z,3.92
2022-12-06T08:30:48.162Z,3.83
2022-12-06T08:33:14.401Z,4.10
2022-12-06T08:35:40.715Z,4.00
2022-12-06T08:38:09.451Z,3.45
2022-12-06T08:40:35.670Z,3.28
2022-12-06T08:43:01.832Z,4.18
2022-12-06T08:45:28.038Z,3.95
2022-12-06T08:47:54.229Z,4.30
2022-12-06T08:50:20.532Z,3.78
2022-12-06T08:52:46.955Z,3.75
2022-12-06T08:55:13.313Z,3.97
2022-12-06T08:57:39.520Z,4.15
2022-12-06T09:00:05.716Z,3.72
2022-12-06T09:02:31.880Z,3.35
2022-12-06T09:04:58.098Z,3.90
2022-12-06T09:07:24.339Z,4.35
2022-12-06T09:09:50.536Z,3.88
2022-12-06T09:12:16.662Z,2.97
2022-12-06T09:14:42.810Z,4.35
2022-12-06T09:17:09.011Z,4.18
2022-12-06T09:19:35.149Z,4.32
2022-12-06T09:22:01.331Z,4.47
2022-12-06T09:24:27.530Z,3.42
2022-12-06T09:26:53.751Z,3.92
2022-12-06T09:29:19.983Z,4.13
2022-12-06T09:31:51.141Z,3.63
2022-12-06T09:34:17.360Z,4.05
2022-12-06T09:36:43.497Z,3.83
2022-12-06T09:39:09.649Z,4.22
2022-12-06T09:41:35.846Z,4.10
2022-12-06T09:44:02.208Z,4.13
2022-12-06T09:46:33.163Z,3.53
2022-12-06T09:49:02.624Z,3.78
2022-12-06T09:51:29.169Z,3.53
2022-12-06T09:56:38.482Z,3.60
2022-12-06T09:59:04.641Z,3.78
2022-12-06T10:01:30.951Z,3.67
2022-12-06T10:03:57.197Z,3.60
2022-12-06T10:06:23.385Z,3.55
2022-12-06T10:08:49.613Z,3.72
2022-12-06T10:11:15.881Z,3.40
2022-12-06T10:13:42.062Z,3.78
2022-12-06T10:16:08.315Z,4.03
2022-12-06T10:18:34.492Z,3.55
2022-12-06T10:21:00.634Z,3.53
2022-12-06T10:23:26.806Z,3.10
2022-12-06T10:25:52.993Z,3.85
2022-12-06T10:28:19.202Z,3.83
2022-12-06T10:30:45.397Z,3.65
2022-12-06T10:33:11.520Z,4.20
2022-12-06T10:35:37.724Z,3.55
2022-12-06T10:38:03.921Z,3.58
2022-12-06T10:40:30.149Z,3.17
2022-12-06T10:42:56.385Z,3.58
2022-12-06T10:45:24.996Z,3.80
2022-12-06T10:47:51.380Z,3.58
2022-12-06T10:50:17.582Z,3.33
2022-12-06T10:52:43.756Z,3.28
2022-12-06T10:55:09.968Z,3.30
2022-12-06T10:57:36.146Z,3.13
2022-12-06T11:00:04.023Z,3.03
2022-12-06T11:02:30.577Z,3.78
2022-12-06T11:04:56.754Z,3.65
2022-12-06T11:07:22.900Z,3.88
2022-12-06T11:09:49.068Z,3.20
2022-12-06T11:12:15.252Z,3.67
2022-12-06T11:14:41.403Z,3.45
2022-12-06T11:17:07.565Z,3.05
2022-12-06T11:19:33.712Z,3.25
2022-12-06T11:21:59.953Z,3.35
2022-12-06T11:24:26.137Z,3.40
2022-12-06T11:26:52.329Z,3.30
2022-12-06T11:29:18.538Z,3.42
2022-12-06T11:31:44.784Z,3.38
2022-12-06T11:34:10.965Z,3.38
2022-12-06T11:36:37.132Z,3.60
2022-12-06T11:39:03.274Z,3.20
2022-12-06T11:41:29.469Z,3.00
2022-12-06T11:43:55.594Z,3.40
2022-12-06T11:46:21.794Z,3.47
2022-12-06T11:48:47.967Z,3.40
2022-12-06T11:51:14.113Z,3.78
2022-12-06T11:53:40.260Z,3.33
2022-12-06T11:56:06.405Z,3.05
2022-12-06T11:58:32.617Z,3.60
2022-12-06T12:00:58.760Z,3.40
2022-12-06T12:03:24.993Z,3.33
2022-12-06T12:05:51.181Z,3.95
2022-12-06T12:08:17.366Z,3.42
2022-12-06T12:10:43.625Z,3.58
2022-12-06T12:13:09.790Z,3.20
2022-12-06T12:15:35.974Z,3.60
2022-12-06T12:18:02.141Z,3.25
2022-12-06T12:20:28.258Z,3.13
2022-12-06T12:22:54.434Z,3.40
2022-12-06T12:25:20.801Z,3.17
2022-12-06T12:27:47.121Z,3.92
2022-12-06T12:30:13.279Z,3.97
2022-12-06T12:32:39.486Z,3.33
2022-12-06T12:35:05.692Z,3.30
2022-12-06T12:37:31.910Z,3.05
2022-12-06T12:39:58.048Z,2.95
2022-12-06T12:42:24.237Z,3.20
2022-12-06T12:44:50.422Z,3.25
2022-12-06T12:47:16.618Z,3.10
2022-12-06T12:49:42.784Z,2.85
2022-12-06T12:52:08.988Z,2.75
2022-12-06T12:54:35.324Z,2.95
2022-12-06T12:57:01.525Z,2.88
2022-12-06T12:59:27.702Z,3.47
2022-12-06T13:01:54.053Z,2.80
2022-12-06T13:04:20.312Z,3.10
2022-12-06T13:06:46.503Z,2.85
2022-12-06T13:09:12.643Z,3.08
2022-12-06T13:11:38.793Z,3.30
2022-12-06T13:14:04.958Z,3.17
2022-12-06T13:16:31.247Z,2.97
2022-12-06T13:18:57.465Z,3.20
2022-12-06T13:21:23.634Z,3.45
2022-12-06T13:23:49.812Z,3.15
2022-12-06T13:26:16.112Z,4.20
2022-12-06T13:28:42.293Z,3.13
2022-12-06T13:31:08.511Z,2.92
2022-12-06T13:33:34.736Z,3.30
2022-12-06T13:36:00.910Z,3.03
2022-12-06T13:38:27.255Z,2.90
2022-12-06T13:40:53.407Z,7.13
2022-12-06T13:43:19.607Z,3.47
2022-12-06T13:45:45.929Z,3.05
2022-12-06T13:48:12.102Z,2.65
2022-12-06T13:50:38.273Z,3.00
2022-12-06T13:53:04.479Z,2.72
2022-12-06T13:55:30.606Z,2.80
2022-12-06T13:57:56.738Z,3.13
2022-12-06T14:00:22.926Z,3.08
2022-12-06T14:02:49.199Z,3.00
2022-12-06T14:05:15.452Z,2.97
2022-12-06T14:07:41.622Z,3.00
2022-12-06T14:10:07.826Z,2.97
2022-12-06T14:12:34.042Z,3.20
2022-12-06T14:15:00.242Z,3.40
2022-12-06T14:17:59.230Z,2.75
2022-12-06T14:20:12.624Z,2.72
2022-12-06T14:22:38.850Z,3.15
2022-12-06T14:25:05.013Z,3.28
2022-12-06T14:27:31.179Z,3.05
2022-12-06T14:29:57.569Z,3.00
2022-12-06T14:32:23.899Z,2.60
2022-12-06T14:34:50.226Z,3.00
2022-12-06T14:37:16.376Z,3.17
2022-12-06T14:39:42.578Z,2.90
2022-12-06T14:42:08.778Z,3.05
2022-12-06T14:44:34.937Z,3.00
2022-12-06T14:47:01.272Z,3.03
2022-12-06T14:49:27.438Z,3.42
2022-12-06T14:51:53.700Z,3.70
2022-12-06T14:54:19.898Z,3.15
2022-12-06T14:56:46.098Z,3.13
2022-12-06T14:59:12.281Z,3.67
2022-12-06T15:01:38.659Z,3.83
2022-12-06T15:04:04.926Z,3.67
2022-12-06T15:06:31.267Z,4.28
2022-12-06T15:08:57.442Z,4.28
2022-12-06T15:11:23.637Z,4.03
2022-12-06T15:13:49.818Z,4.13
2022-12-06T15:16:16.018Z,4.53
2022-12-06T15:18:42.261Z,4.25
2022-12-06T15:21:08.444Z,4.68
2022-12-06T15:23:34.658Z,4.72
2022-12-06T15:26:00.783Z,5.43
2022-12-06T15:28:26.886Z,5.07
2022-12-06T15:30:53.070Z,4.80
2022-12-06T15:33:19.263Z,4.18
2022-12-06T15:35:45.390Z,4.07
2022-12-06T15:38:11.781Z,3.63
2022-12-06T15:40:37.907Z,4.55
2022-12-06T15:43:04.051Z,4.47
2022-12-06T15:45:30.240Z,5.28
2022-12-06T15:47:56.365Z,4.60
2022-12-06T15:50:22.488Z,3.83
2022-12-06T15:52:48.709Z,4.18
2022-12-06T15:55:21.140Z,3.47
2022-12-06T15:57:47.295Z,3.60
2022-12-06T16:00:13.474Z,4.18
2022-12-06T16:02:39.658Z,3.50
2022-12-06T16:05:05.812Z,3.88
2022-12-06T16:07:32.270Z,4.18
2022-12-06T16:09:58.793Z,4.15
2022-12-06T16:12:24.964Z,4.07
2022-12-06T16:14:51.335Z,3.60
2022-12-06T16:17:17.502Z,4.07
2022-12-06T16:19:43.633Z,5.07
2022-12-06T16:22:09.801Z,4.75
2022-12-06T16:24:35.952Z,3.50
2022-12-06T16:27:02.080Z,4.05
2022-12-06T16:29:28.232Z,3.67
2022-12-06T16:31:54.475Z,3.83
2022-12-06T16:34:20.730Z,4.38
2022-12-06T16:36:46.881Z,3.85
2022-12-06T16:39:13.080Z,3.70
2022-12-06T16:41:39.304Z,3.88
2022-12-06T16:44:05.559Z,4.63
2022-12-06T16:46:31.772Z,3.88
2022-12-06T16:49:10.650Z,4.78
2022-12-06T16:51:44.171Z,4.53
2022-12-06T16:54:10.345Z,4.45
2022-12-06T16:56:41.371Z,3.72
2022-12-06T16:59:07.915Z,4.93
2022-12-06T17:01:34.092Z,3.95
2022-12-06T17:04:00.230Z,5.10
2022-12-06T17:06:26.575Z,4.32
2022-12-06T17:08:52.778Z,3.22
2022-12-06T17:11:18.921Z,4.03
2022-12-06T17:13:45.088Z,3.92
2022-12-06T17:16:17.944Z,4.03
2022-12-06T17:18:44.171Z,3.25
2022-12-06T17:21:13.175Z,3.60
2022-12-06T17:23:43.062Z,3.60
2022-12-06T17:26:09.307Z,3.55
2022-12-06T17:28:35.506Z,3.60
2022-12-06T17:31:01.712Z,4.03
2022-12-06T17:33:27.954Z,5.10
2022-12-06T17:35:54.155Z,5.15
2022-12-06T17:38:20.322Z,4.65
2022-12-06T17:40:46.525Z,5.15
2022-12-06T17:43:12.695Z,5.72
2022-12-06T17:45:38.895Z,5.75
2022-12-06T17:48:05.113Z,5.28
2022-12-06T17:50:31.312Z,5.70
2022-12-06T17:52:57.713Z,7.22
2022-12-06T17:55:23.932Z,8.52
2022-12-06T17:57:55.935Z,5.45
2022-12-06T18:00:22.077Z,8.20
2022-12-06T18:02:48.653Z,4.68
2022-12-06T18:05:14.975Z,4.55
2022-12-06T18:07:41.195Z,6.03
2022-12-06T18:10:07.369Z,4.68
2022-12-06T18:12:34.970Z,5.00
2022-12-06T18:15:01.522Z,5.97
2022-12-06T18:17:27.817Z,4.45
2022-12-06T18:19:54.079Z,8.27
2022-12-06T18:22:20.248Z,4.88
2022-12-06T18:24:46.447Z,6.35
2022-12-06T18:27:12.686Z,8.05
2022-12-06T18:29:39.201Z,6.00
2022-12-06T18:32:05.447Z,5.82
2022-12-06T18:34:31.718Z,6.35
2022-12-06T18:36:58.188Z,4.97
2022-12-06T18:39:24.411Z,5.18
2022-12-06T18:41:50.699Z,5.70
2022-12-06T18:44:16.925Z,4.47
2022-12-06T18:46:43.119Z,4.07
2022-12-06T18:49:09.326Z,4.65
2022-12-06T18:51:35.564Z,5.35
2022-12-06T18:54:01.738Z,4.95
2022-12-06T18:56:27.926Z,4.65
2022-12-06T18:58:54.118Z,5.55
2022-12-06T19:01:20.408Z,8.38
2022-12-06T19:03:46.620Z,8.65
2022-12-06T19:06:12.808Z,10.75
2022-12-06T19:08:38.998Z,10.07
2022-12-06T19:11:05.188Z,8.57
2022-12-06T19:13:31.417Z,8.13
2022-12-06T19:15:57.599Z,7.88
2022-12-06T19:18:23.801Z,7.13
2022-12-06T19:20:57.204Z,5.28
2022-12-06T19:23:23.371Z,4.53
2022-12-06T19:25:51.566Z,5.25
2022-12-06T19:28:17.736Z,5.47
2022-12-06T19:30:43.981Z,4.22
2022-12-06T19:33:10.115Z,4.63
2022-12-06T19:35:36.232Z,4.22
2022-12-06T19:38:02.401Z,10.10
2022-12-06T19:40:28.580Z,9.90
2022-12-06T19:42:54.770Z,6.70
2022-12-06T19:45:20.971Z,10.15
2022-12-06T19:47:47.130Z,8.55
2022-12-06T19:50:13.383Z,13.13
2022-12-06T19:52:39.618Z,11.32
2022-12-06T19:55:05.877Z,6.65
2022-12-06T19:57:32.040Z,5.13
2022-12-06T19:59:58.326Z,5.18
2022-12-06T20:02:24.689Z,6.38
2022-12-06T20:04:51.087Z,5.90
2022-12-06T20:07:17.306Z,8.10
2022-12-06T20:09:43.490Z,5.15
2022-12-06T20:12:09.690Z,6.20
2022-12-06T20:14:35.915Z,6.80
2022-12-06T20:17:02.137Z,6.75
2022-12-06T20:19:28.324Z,6.18
2022-12-06T20:21:54.527Z,6.30
2022-12-06T20:24:20.665Z,5.97
2022-12-06T20:26:46.878Z,5.75
2022-12-06T20:29:13.080Z,5.35
2022-12-06T20:31:39.310Z,6.40
2022-12-06T20:34:08.928Z,7.07
2022-12-06T20:36:37.779Z,6.88
2022-12-06T20:39:03.975Z,5.80
2022-12-06T20:41:30.118Z,6.47
2022-12-06T20:43:56.301Z,5.32
2022-12-06T20:46:22.532Z,5.57
2022-12-06T20:48:48.717Z,4.93
2022-12-06T20:51:14.855Z,4.30
2022-12-06T20:53:41.046Z,5.15
2022-12-06T20:56:08.272Z,5.25
2022-12-06T20:58:34.578Z,5.47
2022-12-06T21:01:01.957Z,6.28
2022-12-06T21:03:28.249Z,5.85
2022-12-06T21:05:55.473Z,5.82
2022-12-06T21:08:21.763Z,5.53
2022-12-06T21:11:14.257Z,6.28
2022-12-06T21:13:34.068Z,5.70
2022-12-06T21:16:00.289Z,5.47
2022-12-06T21:18:29.960Z,6.28
2022-12-06T21:20:56.280Z,6.88
2022-12-06T21:23:22.451Z,7.57
2022-12-06T21:25:48.650Z,5.78
2022-12-06T21:28:14.867Z,5.47
2022-12-06T21:30:41.036Z,4.78
2022-12-06T21:33:07.217Z,5.53
2022-12-06T21:35:33.470Z,5.18
2022-12-06T21:37:59.873Z,4.28
2022-12-06T21:40:26.082Z,5.00
2022-12-06T21:42:52.244Z,5.43
2022-12-06T21:45:18.400Z,5.38
2022-12-06T21:47:44.576Z,5.13
2022-12-06T21:50:10.744Z,4.85
2022-12-06T21:52:36.968Z,4.80
2022-12-06T21:55:03.193Z,4.90
2022-12-06T21:57:29.344Z,4.57
2022-12-06T21:59:55.545Z,4.60
2022-12-06T22:02:21.768Z,4.15
2022-12-06T22:04:47.997Z,4.50
2022-12-06T22:07:14.196Z,4.93
2022-12-06T22:09:40.403Z,4.78
2022-12-06T22:12:06.811Z,4.45
2022-12-06T22:14:32.962Z,4.00
2022-12-06T22:16:59.137Z,4.70
2022-12-06T22:19:25.353Z,5.20
2022-12-06T22:21:51.589Z,4.50
2022-12-06T22:24:17.787Z,4.10
2022-12-06T22:26:44.012Z,4.40
2022-12-06T22:29:10.208Z,4.47
2022-12-06T22:31:36.402Z,4.57
2022-12-06T22:34:02.612Z,4.72
2022-12-06T22:36:28.818Z,5.13
2022-12-06T22:38:54.985Z,5.38
2022-12-06T22:41:21.144Z,4.82
2022-12-06T22:43:47.316Z,4.35
2022-12-06T22:46:13.571Z,5.25
2022-12-06T22:48:39.784Z,4.88
2022-12-06T22:51:05.943Z,4.20
2022-12-06T22:53:32.087Z,4.90
2022-12-06T22:55:58.262Z,4.50
2022-12-06T22:58:24.416Z,4.82
2022-12-06T23:00:50.584Z,4.75
2022-12-06T23:03:16.776Z,4.45
2022-12-06T23:05:42.982Z,4.70
2022-12-06T23:08:09.244Z,4.05
2022-12-06T23:10:35.437Z,4.40
2022-12-06T23:13:01.645Z,4.70
2022-12-06T23:15:27.782Z,4.13
2022-12-06T23:17:54.015Z,4.65
2022-12-06T23:20:21.318Z,4.32
2022-12-06T23:22:47.474Z,3.97
2022-12-06T23:25:13.697Z,5.18
2022-12-06T23:27:39.889Z,4.82
2022-12-06T23:30:06.013Z,4.10
2022-12-06T23:32:32.184Z,4.55
2022-12-06T23:34:58.364Z,4.70
2022-12-06T23:37:24.574Z,4.82
2022-12-06T23:39:50.712Z,4.65
2022-12-06T23:42:16.896Z,4.63
2022-12-06T23:44:43.127Z,4.75
2022-12-06T23:47:09.324Z,4.43
2022-12-06T23:49:35.506Z,4.57
2022-12-06T23:52:01.711Z,5.13
2022-12-06T23:54:27.866Z,5.18
2022-12-06T23:56:54.039Z,4.68
2022-12-06T23:59:20.187Z,5.30
